createdAt,value
2022-10-02T00:01:58.744Z,12.18
2022-10-02T00:04:41.897Z,12.16
2022-10-02T00:07:11.408Z,12.12
2022-10-02T00:09:46.701Z,12.10
2022-10-02T00:12:18.368Z,12.06
2022-10-02T00:14:46.750Z,12.03
2022-10-02T00:17:20.567Z,11.99
2022-10-02T00:19:47.104Z,11.95
2022-10-02T00:22:27.419Z,11.91
2022-10-02T00:25:09.160Z,11.86
2022-10-02T00:27:55.104Z,11.84
2022-10-02T00:30:21.959Z,11.82
2022-10-02T00:33:23.692Z,11.82
2022-10-02T00:35:57.030Z,11.85
2022-10-02T00:39:08.294Z,11.91
2022-10-02T00:42:06.099Z,11.98
2022-10-02T00:44:51.924Z,12.02
2022-10-02T00:47:30.214Z,12.07
2022-10-02T00:50:19.086Z,12.11
2022-10-02T00:52:48.396Z,12.12
2022-10-02T00:55:38.077Z,12.10
2022-10-02T00:58:29.369Z,12.07
2022-10-02T01:01:05.709Z,12.02
2022-10-02T01:03:40.930Z,11.99
2022-10-02T01:06:11.688Z,11.96
2022-10-02T01:08:38.649Z,11.95
2022-10-02T01:11:06.468Z,11.91
2022-10-02T01:13:33.226Z,11.86
2022-10-02T01:16:03.281Z,11.81
2022-10-02T01:18:31.037Z,11.76
2022-10-02T01:21:07.443Z,11.72
2022-10-02T01:23:45.653Z,11.71
2022-10-02T01:26:12.194Z,11.67
2022-10-02T01:28:38.773Z,11.65
2022-10-02T01:31:08.513Z,11.62
2022-10-02T01:33:37.023Z,11.63
2022-10-02T01:36:04.371Z,11.65
2022-10-02T01:38:31.529Z,11.68
2022-10-02T01:40:58.062Z,11.68
2022-10-02T01:43:30.504Z,11.69
2022-10-02T01:46:24.291Z,11.74
2022-10-02T01:49:25.191Z,11.76
2022-10-02T01:52:15.839Z,11.77
2022-10-02T01:55:07.967Z,11.79
2022-10-02T01:58:02.327Z,11.81
2022-10-02T02:00:57.565Z,11.82
2022-10-02T02:03:28.737Z,11.81
2022-10-02T02:06:11.135Z,11.79
2022-10-02T02:08:58.516Z,11.77
2022-10-02T02:11:28.623Z,11.74
2022-10-02T02:14:15.968Z,11.72
2022-10-02T02:16:45.244Z,11.76
2022-10-02T02:19:24.985Z,11.79
2022-10-02T02:22:05.694Z,11.80
2022-10-02T02:24:48.052Z,11.79
2022-10-02T02:27:19.764Z,11.76
2022-10-02T02:29:51.042Z,11.74
2022-10-02T02:32:22.295Z,11.75
2022-10-02T02:34:54.855Z,11.74
2022-10-02T02:37:25.397Z,11.72
2022-10-02T02:39:59.437Z,11.71
2022-10-02T02:42:31.092Z,11.69
2022-10-02T02:45:12.030Z,11.65
2022-10-02T02:47:47.724Z,11.64
2022-10-02T02:50:26.227Z,11.65
2022-10-02T02:53:25.955Z,11.71
2022-10-02T02:55:58.108Z,11.76
2022-10-02T02:58:40.619Z,11.78
2022-10-02T03:01:07.458Z,11.79
2022-10-02T03:03:34.196Z,11.83
2022-10-02T03:06:06.879Z,11.83
2022-10-02T03:08:37.430Z,11.79
2022-10-02T03:11:05.396Z,11.78
2022-10-02T03:14:02.186Z,11.75
2022-10-02T03:16:59.813Z,11.72
2022-10-02T03:20:23.088Z,11.70
2022-10-02T03:22:55.040Z,11.66
2022-10-02T03:25:37.179Z,11.66
2022-10-02T03:28:37.348Z,11.63
2022-10-02T03:31:05.915Z,11.56
2022-10-02T03:33:36.407Z,11.54
2022-10-02T03:36:04.345Z,11.54
2022-10-02T03:38:33.131Z,11.51
2022-10-02T03:40:59.937Z,11.51
2022-10-02T03:43:29.423Z,11.53
2022-10-02T03:45:55.851Z,11.52
2022-10-02T03:48:26.723Z,11.53
2022-10-02T03:50:53.272Z,11.54
2022-10-02T03:53:22.268Z,11.52
2022-10-02T03:56:02.964Z,11.52
2022-10-02T03:58:29.560Z,11.52
2022-10-02T04:01:11.718Z,11.49
2022-10-02T04:03:49.109Z,11.48
2022-10-02T04:06:34.751Z,11.51
2022-10-02T04:09:09.224Z,11.52
2022-10-02T04:11:59.351Z,11.51
2022-10-02T04:14:37.727Z,11.51
2022-10-02T04:17:10.068Z,11.52
2022-10-02T04:19:44.768Z,11.51
2022-10-02T04:22:29.912Z,11.48
2022-10-02T04:25:05.559Z,11.44
2022-10-02T04:27:50.678Z,11.37
2022-10-02T04:30:19.695Z,11.36
2022-10-02T04:32:47.495Z,11.33
2022-10-02T04:35:32.909Z,11.34
2022-10-02T04:38:17.555Z,11.33
2022-10-02T04:41:03.609Z,11.31
2022-10-02T04:43:48.561Z,11.25
2022-10-02T04:46:46.134Z,11.21
2022-10-02T04:49:29.605Z,11.17
2022-10-02T04:52:16.921Z,11.14
2022-10-02T04:54:46.096Z,11.10
2022-10-02T04:57:18.535Z,11.08
2022-10-02T05:00:11.720Z,11.08
2022-10-02T05:02:53.557Z,11.08
2022-10-02T05:05:32.149Z,11.07
2022-10-02T05:08:10.365Z,11.05
2022-10-02T05:10:58.886Z,11.04
2022-10-02T05:13:28.392Z,11.06
2022-10-02T05:16:32.117Z,11.12
2022-10-02T05:19:17.555Z,11.16
2022-10-02T05:22:17.913Z,11.22
2022-10-02T05:25:07.007Z,11.29
2022-10-02T05:27:36.533Z,11.37
2022-10-02T05:30:08.437Z,11.42
2022-10-02T05:32:50.735Z,11.48
2022-10-02T05:35:31.908Z,11.53
2022-10-02T05:38:10.454Z,11.51
2022-10-02T05:41:02.302Z,11.54
2022-10-02T05:43:31.415Z,11.58
2022-10-02T05:46:16.302Z,11.58
2022-10-02T05:48:49.149Z,11.60
2022-10-02T05:51:36.875Z,11.60
2022-10-02T05:54:15.439Z,11.59
2022-10-02T05:56:47.657Z,11.58
2022-10-02T05:59:32.523Z,11.59
2022-10-02T06:02:04.877Z,11.61
2022-10-02T06:04:40.967Z,11.64
2022-10-02T06:07:15.539Z,11.65
2022-10-02T06:10:03.221Z,11.67
2022-10-02T06:12:41.875Z,11.67
2022-10-02T06:15:19.495Z,11.70
2022-10-02T06:17:51.644Z,11.71
2022-10-02T06:20:25.513Z,11.73
2022-10-02T06:22:58.491Z,11.78
2022-10-02T06:25:36.814Z,11.80
2022-10-02T06:28:09.284Z,11.79
2022-10-02T06:30:41.397Z,11.81
2022-10-02T06:33:30.718Z,11.83
2022-10-02T06:36:25.775Z,11.87
2022-10-02T06:39:22.635Z,11.91
2022-10-02T06:42:18.678Z,11.93
2022-10-02T06:45:03.800Z,11.97
2022-10-02T06:47:49.237Z,12.03
2022-10-02T06:50:19.372Z,12.13
2022-10-02T06:53:01.085Z,12.18
2022-10-02T06:55:51.426Z,12.23
2022-10-02T06:58:49.035Z,12.29
2022-10-02T07:01:35.345Z,12.43
2022-10-02T07:04:29.862Z,12.56
2022-10-02T07:07:37.731Z,12.68
2022-10-02T07:10:17.676Z,12.76
2022-10-02T07:13:12.752Z,12.85
2022-10-02T07:15:57.759Z,12.91
2022-10-02T07:18:37.458Z,12.98
2022-10-02T07:21:15.325Z,13.07
2022-10-02T07:23:48.597Z,13.12
2022-10-02T07:26:27.996Z,13.14
2022-10-02T07:29:14.736Z,13.23
2022-10-02T07:31:56.390Z,13.29
2022-10-02T07:34:30.540Z,13.35
2022-10-02T07:37:07.988Z,13.47
2022-10-02T07:39:55.583Z,13.64
2022-10-02T07:42:57.123Z,14.00
2022-10-02T07:45:36.374Z,14.31
2022-10-02T07:48:22.110Z,14.81
2022-10-02T07:51:38.986Z,15.02
2022-10-02T07:54:27.950Z,15.42
2022-10-02T07:56:59.343Z,15.70
2022-10-02T07:59:26.770Z,16.23
2022-10-02T08:01:53.614Z,17.05
2022-10-02T08:04:33.461Z,19.13
2022-10-02T08:07:05.311Z,20.47
2022-10-02T08:09:36.477Z,19.39
2022-10-02T08:12:26.180Z,18.81
2022-10-02T08:14:55.736Z,18.17
2022-10-02T08:17:33.888Z,17.99
2022-10-02T08:20:07.134Z,17.77
2022-10-02T08:22:53.357Z,17.65
2022-10-02T08:25:31.323Z,17.57
2022-10-02T08:28:22.364Z,17.44
2022-10-02T08:30:48.829Z,17.48
2022-10-02T08:33:19.453Z,17.65
2022-10-02T08:36:28.604Z,18.15
2022-10-02T08:39:30.410Z,18.64
2022-10-02T08:42:15.154Z,20.00
2022-10-02T08:45:02.824Z,20.96
2022-10-02T08:48:05.154Z,20.79
2022-10-02T08:51:08.441Z,20.84
2022-10-02T08:53:40.795Z,20.44
2022-10-02T08:56:32.283Z,19.73
2022-10-02T08:59:12.036Z,19.33
2022-10-02T09:01:47.037Z,19.64
2022-10-02T09:04:40.892Z,19.96
2022-10-02T09:07:35.222Z,20.53
2022-10-02T09:10:38.901Z,20.84
2022-10-02T09:13:28.801Z,20.46
2022-10-02T09:16:26.411Z,20.40
2022-10-02T09:19:11.028Z,19.92
2022-10-02T09:21:57.252Z,19.22
2022-10-02T09:24:48.474Z,18.68
2022-10-02T09:27:59.287Z,18.29
2022-10-02T09:31:12.775Z,17.97
2022-10-02T09:33:59.387Z,17.87
2022-10-02T09:37:08.727Z,17.76
2022-10-02T09:39:39.280Z,17.55
2022-10-02T09:42:20.947Z,17.36
2022-10-02T09:45:11.314Z,17.42
2022-10-02T09:48:20.722Z,17.65
2022-10-02T09:51:26.329Z,17.87
2022-10-02T09:54:11.527Z,17.88
2022-10-02T09:57:00.348Z,17.87
2022-10-02T09:59:54.852Z,17.85
2022-10-02T10:02:46.179Z,17.87
2022-10-02T10:05:35.085Z,17.88
2022-10-02T10:08:29.871Z,17.79
2022-10-02T10:11:00.683Z,17.67
2022-10-02T10:13:27.177Z,17.58
2022-10-02T10:16:19.254Z,17.48
2022-10-02T10:19:23.858Z,17.42
2022-10-02T10:22:31.272Z,17.39
2022-10-02T10:25:21.884Z,17.54
2022-10-02T10:28:19.555Z,17.68
2022-10-02T10:31:16.904Z,17.83
2022-10-02T10:33:54.413Z,17.97
2022-10-02T10:37:01.532Z,18.05
2022-10-02T10:39:43.343Z,18.30
2022-10-02T10:42:50.153Z,18.22
2022-10-02T10:45:34.672Z,18.19
2022-10-02T10:48:35.101Z,18.13
2022-10-02T10:51:14.162Z,18.18
2022-10-02T10:54:08.612Z,18.22
2022-10-02T10:56:42.789Z,18.31
2022-10-02T10:59:42.503Z,18.31
2022-10-02T11:02:46.707Z,18.05
2022-10-02T11:05:36.417Z,17.61
2022-10-02T11:08:24.348Z,17.40
2022-10-02T11:11:09.804Z,17.25
2022-10-02T11:13:41.767Z,17.14
2022-10-02T11:16:37.293Z,17.05
2022-10-02T11:19:21.674Z,17.10
2022-10-02T11:22:01.140Z,17.20
2022-10-02T11:24:50.831Z,17.45
2022-10-02T11:27:57.415Z,17.96
2022-10-02T11:30:32.885Z,18.37
2022-10-02T11:33:14.348Z,18.34
2022-10-02T11:35:59.019Z,18.31
2022-10-02T11:38:40.564Z,18.09
2022-10-02T11:41:25.556Z,18.13
2022-10-02T11:44:33.762Z,18.23
2022-10-02T11:47:18.207Z,18.37
2022-10-02T11:50:14.716Z,18.35
2022-10-02T11:53:03.059Z,18.47
2022-10-02T11:55:49.467Z,18.54
2022-10-02T11:58:45.588Z,18.57
2022-10-02T12:01:24.300Z,18.48
2022-10-02T12:04:29.736Z,18.20
2022-10-02T12:07:05.372Z,18.16
2022-10-02T12:09:55.808Z,18.32
2022-10-02T12:12:42.141Z,18.67
2022-10-02T12:15:24.051Z,18.85
2022-10-02T12:18:38.608Z,19.12
2022-10-02T12:21:44.934Z,19.48
2022-10-02T12:24:47.355Z,19.31
2022-10-02T12:27:23.202Z,19.07
2022-10-02T12:29:55.762Z,18.87
2022-10-02T12:32:59.644Z,18.63
2022-10-02T12:35:40.278Z,18.50
2022-10-02T12:38:35.437Z,18.39
2022-10-02T12:41:10.899Z,18.22
2022-10-02T12:44:11.249Z,18.06
2022-10-02T12:46:46.435Z,18.06
2022-10-02T12:49:47.235Z,18.23
2022-10-02T12:52:35.275Z,18.25
2022-10-02T12:55:45.782Z,18.28
2022-10-02T12:58:31.588Z,18.04
2022-10-02T13:01:43.189Z,17.95
2022-10-02T13:04:39.256Z,17.96
2022-10-02T13:07:14.676Z,18.05
2022-10-02T13:09:47.373Z,18.30
2022-10-02T13:12:32.841Z,18.68
2022-10-02T13:15:06.339Z,18.91
2022-10-02T13:17:46.906Z,19.07
2022-10-02T13:20:28.355Z,19.27
2022-10-02T13:23:19.709Z,19.50
2022-10-02T13:26:13.250Z,19.80
2022-10-02T13:29:03.029Z,19.99
2022-10-02T13:31:49.144Z,20.09
2022-10-02T13:34:26.255Z,20.28
2022-10-02T13:37:14.132Z,19.99
2022-10-02T13:40:00.867Z,19.87
2022-10-02T13:43:03.406Z,19.69
2022-10-02T13:45:40.934Z,19.46
2022-10-02T13:48:34.383Z,19.30
2022-10-02T13:51:06.295Z,19.14
2022-10-02T13:53:56.148Z,19.01
2022-10-02T13:56:29.507Z,19.08
2022-10-02T13:59:07.796Z,19.29
2022-10-02T14:02:16.272Z,19.59
2022-10-02T14:04:51.968Z,19.74
2022-10-02T14:07:54.280Z,19.61
2022-10-02T14:10:37.099Z,19.61
2022-10-02T14:13:18.203Z,19.64
2022-10-02T14:16:37.034Z,19.57
2022-10-02T14:19:24.491Z,19.46
2022-10-02T14:22:20.599Z,19.43
2022-10-02T14:25:14.681Z,19.21
2022-10-02T14:28:02.945Z,19.10
2022-10-02T14:31:13.439Z,19.08
2022-10-02T14:33:59.061Z,19.13
2022-10-02T14:36:31.757Z,19.36
2022-10-02T14:39:27.577Z,19.66
2022-10-02T14:41:57.005Z,19.66
2022-10-02T14:44:39.538Z,19.75
2022-10-02T14:47:30.026Z,19.68
2022-10-02T14:50:13.872Z,19.71
2022-10-02T14:53:11.143Z,19.77
2022-10-02T14:55:49.712Z,19.77
2022-10-02T14:58:22.813Z,19.86
2022-10-02T15:01:06.511Z,19.93
2022-10-02T15:04:12.660Z,19.92
2022-10-02T15:06:59.087Z,19.89
2022-10-02T15:09:48.297Z,19.82
2022-10-02T15:12:35.783Z,19.83
2022-10-02T15:15:17.680Z,19.75
2022-10-02T15:18:20.107Z,19.69
2022-10-02T15:20:49.543Z,19.60
2022-10-02T15:23:45.960Z,19.52
2022-10-02T15:26:34.264Z,19.42
2022-10-02T15:29:32.632Z,19.29
2022-10-02T15:32:24.645Z,19.19
2022-10-02T15:35:19.668Z,19.09
2022-10-02T15:38:14.339Z,18.95
2022-10-02T15:40:59.675Z,18.87
2022-10-02T15:43:40.006Z,18.72
2022-10-02T15:46:23.373Z,18.64
2022-10-02T15:48:58.777Z,18.55
2022-10-02T15:51:50.234Z,18.44
2022-10-02T15:54:21.680Z,18.31
2022-10-02T15:56:58.256Z,18.19
2022-10-02T15:59:24.705Z,18.12
2022-10-02T16:01:57.420Z,18.05
2022-10-02T16:04:34.698Z,17.97
2022-10-02T16:07:45.079Z,17.90
2022-10-02T16:10:18.363Z,17.78
2022-10-02T16:13:01.352Z,17.71
2022-10-02T16:15:51.991Z,17.61
2022-10-02T16:18:26.300Z,17.51
2022-10-02T16:21:06.613Z,17.37
2022-10-02T16:24:02.421Z,17.21
2022-10-02T16:26:43.067Z,17.06
2022-10-02T16:29:44.765Z,16.90
2022-10-02T16:32:31.145Z,16.75
2022-10-02T16:35:19.978Z,16.61
2022-10-02T16:38:02.111Z,16.47
2022-10-02T16:40:58.106Z,16.35
2022-10-02T16:43:39.693Z,16.22
2022-10-02T16:46:40.117Z,16.08
2022-10-02T16:49:33.665Z,15.90
2022-10-02T16:52:25.663Z,15.76
2022-10-02T16:55:04.044Z,15.61
2022-10-02T16:57:54.702Z,15.49
2022-10-02T17:00:52.354Z,15.35
2022-10-02T17:04:00.907Z,15.22
2022-10-02T17:06:43.784Z,15.07
2022-10-02T17:09:53.635Z,14.95
2022-10-02T17:12:27.675Z,14.83
2022-10-02T17:15:07.625Z,14.71
2022-10-02T17:17:51.139Z,14.61
2022-10-02T17:20:26.260Z,14.52
2022-10-02T17:23:14.557Z,14.41
2022-10-02T17:26:16.435Z,14.34
2022-10-02T17:28:53.329Z,14.30
2022-10-02T17:31:41.898Z,14.23
2022-10-02T17:34:33.079Z,14.18
2022-10-02T17:37:02.377Z,14.10
2022-10-02T17:39:59.974Z,14.05
2022-10-02T17:42:31.475Z,13.96
2022-10-02T17:45:29.345Z,13.88
2022-10-02T17:48:24.036Z,13.81
2022-10-02T17:51:24.472Z,13.72
2022-10-02T17:54:35.988Z,13.64
2022-10-02T17:57:22.935Z,13.57
2022-10-02T17:59:52.069Z,13.49
2022-10-02T18:02:46.284Z,13.44
2022-10-02T18:05:51.284Z,13.35
2022-10-02T18:08:36.709Z,13.27
2022-10-02T18:11:11.136Z,13.23
2022-10-02T18:13:59.615Z,13.22
2022-10-02T18:16:33.261Z,13.19
2022-10-02T18:19:21.883Z,13.14
2022-10-02T18:21:54.604Z,13.10
2022-10-02T18:24:56.135Z,13.04
2022-10-02T18:27:37.784Z,12.98
2022-10-02T18:30:19.306Z,12.96
2022-10-02T18:33:07.417Z,12.90
2022-10-02T18:35:54.918Z,12.83
2022-10-02T18:38:45.324Z,12.75
2022-10-02T18:41:35.988Z,12.67
2022-10-02T18:44:09.285Z,12.60
2022-10-02T18:46:50.416Z,12.54
2022-10-02T18:49:16.861Z,12.46
2022-10-02T18:51:46.451Z,12.36
2022-10-02T18:54:19.913Z,12.28
2022-10-02T18:56:57.552Z,12.20
2022-10-02T19:00:02.842Z,12.14
2022-10-02T19:02:50.370Z,12.09
2022-10-02T19:05:29.937Z,12.06
2022-10-02T19:08:13.088Z,12.04
2022-10-02T19:10:44.747Z,11.97
2022-10-02T19:13:22.294Z,11.91
2022-10-02T19:15:54.433Z,11.85
2022-10-02T19:18:23.838Z,11.80
2022-10-02T19:20:58.532Z,11.75
2022-10-02T19:23:52.492Z,11.67
2022-10-02T19:26:23.379Z,11.57
2022-10-02T19:29:05.437Z,11.52
2022-10-02T19:31:39.771Z,11.48
2022-10-02T19:34:17.716Z,11.47
2022-10-02T19:36:52.141Z,11.43
2022-10-02T19:39:30.704Z,11.40
2022-10-02T19:42:00.703Z,11.33
2022-10-02T19:44:34.844Z,11.25
2022-10-02T19:47:12.167Z,11.13
2022-10-02T19:49:40.594Z,11.09
2022-10-02T19:52:37.935Z,11.08
2022-10-02T19:55:19.122Z,11.07
2022-10-02T19:57:51.962Z,11.08
2022-10-02T20:00:19.919Z,11.06
2022-10-02T20:02:49.196Z,10.97
2022-10-02T20:05:20.757Z,10.88
2022-10-02T20:07:54.235Z,10.85
2022-10-02T20:10:29.177Z,10.84
2022-10-02T20:13:14.188Z,10.82
2022-10-02T20:16:12.053Z,10.82
2022-10-02T20:18:38.830Z,10.82
2022-10-02T20:21:23.487Z,10.83
2022-10-02T20:23:56.780Z,10.82
2022-10-02T20:26:27.814Z,10.82
2022-10-02T20:29:06.138Z,10.78
2022-10-02T20:31:47.186Z,10.79
2022-10-02T20:34:25.160Z,10.75
2022-10-02T20:36:58.864Z,10.76
2022-10-02T20:39:32.374Z,10.72
2022-10-02T20:42:10.586Z,10.73
2022-10-02T20:44:37.957Z,10.73
2022-10-02T20:47:27.013Z,10.75
2022-10-02T20:50:21.531Z,10.76
2022-10-02T20:53:02.912Z,10.73
2022-10-02T20:56:04.647Z,10.69
2022-10-02T20:59:07.907Z,10.66
2022-10-02T21:01:44.180Z,10.66
2022-10-02T21:04:44.763Z,10.62
2022-10-02T21:07:19.484Z,10.58
2022-10-02T21:10:05.427Z,10.57
2022-10-02T21:12:47.053Z,10.54
2022-10-02T21:15:28.743Z,10.53
2022-10-02T21:18:34.301Z,10.52
2022-10-02T21:21:39.784Z,10.48
2022-10-02T21:24:25.168Z,10.44
2022-10-02T21:27:27.825Z,10.42
2022-10-02T21:30:14.646Z,10.41
2022-10-02T21:32:47.822Z,10.41
2022-10-02T21:35:51.375Z,10.41
2022-10-02T21:38:31.020Z,10.45
2022-10-02T21:41:40.774Z,10.47
2022-10-02T21:44:25.573Z,10.46
2022-10-02T21:47:27.600Z,10.44
2022-10-02T21:50:12.975Z,10.40
2022-10-02T21:53:01.010Z,10.37
2022-10-02T21:55:53.275Z,10.34
2022-10-02T21:58:50.276Z,10.33
2022-10-02T22:01:25.464Z,10.30
2022-10-02T22:04:00.870Z,10.27
2022-10-02T22:06:36.687Z,10.27
2022-10-02T22:09:51.352Z,10.25
2022-10-02T22:12:49.977Z,10.21
2022-10-02T22:15:26.651Z,10.20
2022-10-02T22:18:01.436Z,10.19
2022-10-02T22:21:01.397Z,10.18
2022-10-02T22:23:53.472Z,10.16
2022-10-02T22:26:22.656Z,10.16
2022-10-02T22:28:54.949Z,10.13
2022-10-02T22:31:27.526Z,10.12
2022-10-02T22:34:22.362Z,10.10
2022-10-02T22:37:10.822Z,10.05
2022-10-02T22:39:42.700Z,10.02
2022-10-02T22:42:18.538Z,9.97
2022-10-02T22:45:10.807Z,9.91
2022-10-02T22:48:10.519Z,9.87
2022-10-02T22:50:48.055Z,9.86
2022-10-02T22:53:39.424Z,9.82
2022-10-02T22:56:21.289Z,9.80
2022-10-02T22:59:06.553Z,9.76
2022-10-02T23:01:48.674Z,9.73
2022-10-02T23:04:44.327Z,9.72
2022-10-02T23:07:17.560Z,9.68
2022-10-02T23:09:44.006Z,9.66
2022-10-02T23:12:19.367Z,9.68
2022-10-02T23:15:05.337Z,9.66
2022-10-02T23:17:50.383Z,9.67
2022-10-02T23:20:27.099Z,9.67
2022-10-02T23:23:01.243Z,9.65
2022-10-02T23:25:41.224Z,9.58
2022-10-02T23:28:34.050Z,9.52
2022-10-02T23:31:30.124Z,9.45
2022-10-02T23:33:59.669Z,9.39
2022-10-02T23:36:44.372Z,9.32
2022-10-02T23:39:35.471Z,9.30
2022-10-02T23:42:05.972Z,9.31
2022-10-02T23:44:50.049Z,9.33
2022-10-02T23:47:31.880Z,9.33
2022-10-02T23:49:59.832Z,9.33
2022-10-02T23:52:43.723Z,9.33
2022-10-02T23:55:22.152Z,9.34
2022-10-02T23:58:14.141Z,9.35
